createdAt,value
2019-03-30T00:00:05.830Z,101987.30
2019-03-30T00:02:37.807Z,101982.45
2019-03-30T00:05:08.485Z,101985.70
2019-03-30T00:07:38.907Z,101977.81
2019-03-30T00:10:09.558Z,101972.59
2019-03-30T00:12:39.937Z,101970.83
2019-03-30T00:15:10.567Z,101961.48
2019-03-30T00:17:40.956Z,101964.17
2019-03-30T00:20:11.987Z,101966.17
2019-03-30T00:22:42.483Z,101958.42
2019-03-30T00:25:12.861Z,101956.47
2019-03-30T00:27:43.613Z,101960.77
2019-03-30T00:30:14.200Z,101952.14
2019-03-30T00:32:44.577Z,101955.04
2019-03-30T00:35:14.944Z,101953.39
2019-03-30T00:37:45.554Z,101954.66
2019-03-30T00:40:15.875Z,101949.62
2019-03-30T00:42:46.223Z,101955.02
2019-03-30T00:45:16.632Z,101949.82
2019-03-30T00:47:47.177Z,101906.02
2019-03-30T00:50:17.612Z,101943.72
2019-03-30T00:52:48.270Z,101945.72
2019-03-30T00:55:21.279Z,101942.48
2019-03-30T00:57:51.589Z,101941.23
2019-03-30T01:00:22.190Z,101938.52
2019-03-30T01:02:52.669Z,101937.46
2019-03-30T01:05:23.055Z,101932.61
2019-03-30T01:07:53.519Z,101926.33
2019-03-30T01:10:23.928Z,101923.48
2019-03-30T01:12:54.420Z,101927.95
2019-03-30T01:15:24.851Z,101922.40
2019-03-30T01:17:55.319Z,101925.09
2019-03-30T01:20:25.819Z,101927.80
2019-03-30T01:22:56.223Z,101916.48
2019-03-30T01:25:26.563Z,101915.41
2019-03-30T01:27:56.902Z,101913.77
2019-03-30T01:30:27.716Z,101913.74
2019-03-30T01:32:58.041Z,101908.02
2019-03-30T01:35:28.572Z,101914.66
2019-03-30T01:37:59.247Z,101909.47
2019-03-30T01:40:29.603Z,101909.65
2019-03-30T01:43:00.169Z,101905.67
2019-03-30T01:45:30.975Z,101907.32
2019-03-30T01:48:01.475Z,101902.27
2019-03-30T01:50:32.146Z,101902.83
2019-03-30T01:53:02.493Z,101893.47
2019-03-30T01:55:32.876Z,101893.86
2019-03-30T01:58:03.700Z,101892.57
2019-03-30T02:00:34.082Z,101884.52
2019-03-30T02:03:04.447Z,101886.48
2019-03-30T02:05:34.819Z,101885.56
2019-03-30T02:08:06.189Z,101881.11
2019-03-30T02:10:54.640Z,101876.95
2019-03-30T02:13:25.003Z,101872.83
2019-03-30T02:15:55.424Z,101871.23
2019-03-30T02:18:25.770Z,101874.09
2019-03-30T02:20:56.139Z,101872.48
2019-03-30T02:23:26.530Z,101869.77
2019-03-30T02:25:57.862Z,101867.09
2019-03-30T02:28:28.684Z,101870.69
2019-03-30T02:30:59.490Z,101865.31
2019-03-30T02:33:30.117Z,101861.16
2019-03-30T02:36:00.497Z,101866.18
2019-03-30T02:38:30.967Z,101867.61
2019-03-30T02:41:01.376Z,101858.30
2019-03-30T02:43:31.719Z,101856.87
2019-03-30T02:46:02.209Z,101860.81
2019-03-30T02:48:32.558Z,101857.22
2019-03-30T02:51:02.907Z,101860.09
2019-03-30T02:53:33.426Z,101853.63
2019-03-30T02:56:03.955Z,101853.25
2019-03-30T02:58:34.655Z,101851.47
2019-03-30T03:01:05.056Z,101847.14
2019-03-30T03:03:35.512Z,101847.15
2019-03-30T03:06:05.898Z,101840.87
2019-03-30T03:08:36.306Z,101848.05
2019-03-30T03:11:06.654Z,101799.58
2019-03-30T03:13:36.954Z,101843.73
2019-03-30T03:16:07.330Z,101839.97
2019-03-30T03:18:37.719Z,101833.86
2019-03-30T03:21:08.856Z,101834.42
2019-03-30T03:23:39.378Z,101836.55
2019-03-30T03:26:09.677Z,101834.77
2019-03-30T03:28:40.129Z,101831.53
2019-03-30T03:31:10.700Z,101825.59
2019-03-30T03:33:41.563Z,101821.83
2019-03-30T03:36:11.970Z,101819.49
2019-03-30T03:38:42.298Z,101809.45
2019-03-30T03:41:12.927Z,101810.53
2019-03-30T03:43:43.815Z,101804.60
2019-03-30T03:46:14.141Z,101802.27
2019-03-30T03:48:44.665Z,101794.73
2019-03-30T03:51:25.826Z,101803.88
2019-03-30T03:53:48.896Z,101795.99
2019-03-30T03:56:22.225Z,101801.36
2019-03-30T03:58:54.770Z,101797.59
2019-03-30T04:01:27.582Z,101789.72
2019-03-30T04:03:59.944Z,101783.61
2019-03-30T04:06:33.049Z,101780.92
2019-03-30T04:09:06.043Z,101780.37
2019-03-30T04:11:40.229Z,101771.05
2019-03-30T04:14:13.984Z,101773.02
2019-03-30T04:16:44.436Z,101770.16
2019-03-30T04:19:14.825Z,101766.73
2019-03-30T04:21:45.609Z,101762.41
2019-03-30T04:24:15.952Z,101764.05
2019-03-30T04:26:47.851Z,101769.77
2019-03-30T04:29:18.280Z,101770.33
2019-03-30T04:31:48.753Z,101754.70
2019-03-30T04:34:19.480Z,101756.14
2019-03-30T04:36:50.063Z,101761.54
2019-03-30T04:39:20.437Z,101760.98
2019-03-30T04:41:51.228Z,101759.55
2019-03-30T04:44:21.662Z,101751.84
2019-03-30T04:46:52.072Z,101750.03
2019-03-30T04:49:22.452Z,101749.34
2019-03-30T04:51:57.862Z,101749.86
2019-03-30T04:54:25.140Z,101749.51
2019-03-30T04:56:55.441Z,101757.03
2019-03-30T04:59:25.965Z,101754.53
2019-03-30T05:01:56.330Z,101753.27
2019-03-30T05:04:26.649Z,101755.95
2019-03-30T05:06:57.099Z,101749.47
2019-03-30T05:09:27.468Z,101758.46
2019-03-30T05:11:57.851Z,101757.38
2019-03-30T05:14:28.619Z,101758.08
2019-03-30T05:16:59.056Z,101752.71
2019-03-30T05:19:29.544Z,101755.56
2019-03-30T05:22:11.396Z,101756.30
2019-03-30T05:24:32.619Z,101750.72
2019-03-30T05:27:04.438Z,101753.06
2019-03-30T05:29:34.748Z,101753.41
2019-03-30T05:32:05.213Z,101754.31
2019-03-30T05:34:35.497Z,101750.55
2019-03-30T05:37:05.902Z,101747.70
2019-03-30T05:39:36.277Z,101741.25
2019-03-30T05:42:07.052Z,101751.80
2019-03-30T05:44:37.720Z,101748.43
2019-03-30T05:47:08.316Z,101749.30
2019-03-30T05:49:38.694Z,101739.47
2019-03-30T05:52:10.064Z,101745.75
2019-03-30T05:54:40.386Z,101745.75
2019-03-30T05:57:12.015Z,101744.88
2019-03-30T05:59:42.338Z,101741.67
2019-03-30T06:02:13.831Z,101744.86
2019-03-30T06:04:44.286Z,101748.59
2019-03-30T06:07:14.881Z,101744.59
2019-03-30T06:09:45.269Z,101744.62
2019-03-30T06:12:15.758Z,101741.73
2019-03-30T06:14:46.288Z,101700.31
2019-03-30T06:17:17.154Z,101744.55
2019-03-30T06:19:47.650Z,101746.70
2019-03-30T06:22:18.020Z,101744.91
2019-03-30T06:24:48.323Z,101740.38
2019-03-30T06:27:19.009Z,101736.78
2019-03-30T06:30:21.340Z,101733.90
2019-03-30T06:32:51.979Z,101728.89
2019-03-30T06:35:22.754Z,101733.17
2019-03-30T06:37:53.439Z,101732.30
2019-03-30T06:40:24.744Z,101736.78
2019-03-30T06:42:55.658Z,101734.59
2019-03-30T06:45:25.969Z,101725.08
2019-03-30T06:47:56.348Z,101723.08
2019-03-30T06:50:27.090Z,101723.64
2019-03-30T06:52:58.758Z,101722.70
2019-03-30T06:55:29.945Z,101720.89
2019-03-30T06:58:00.681Z,101720.64
2019-03-30T07:00:36.229Z,101717.38
2019-03-30T07:03:07.826Z,101717.52
2019-03-30T07:05:43.678Z,101716.17
2019-03-30T07:08:15.948Z,101709.62
2019-03-30T07:10:46.893Z,101712.63
2019-03-30T07:13:17.480Z,101712.75
2019-03-30T07:15:49.313Z,101709.33
2019-03-30T07:18:20.531Z,101705.67
2019-03-30T07:20:50.971Z,101706.39
2019-03-30T07:23:21.400Z,101712.97
2019-03-30T07:25:51.913Z,101710.22
2019-03-30T07:28:22.728Z,101705.45
2019-03-30T07:30:53.571Z,101702.30
2019-03-30T07:33:24.002Z,101699.50
2019-03-30T07:35:54.477Z,101696.08
2019-03-30T07:38:25.286Z,101703.23
2019-03-30T07:40:55.678Z,101698.97
2019-03-30T07:43:25.985Z,101694.77
2019-03-30T07:45:56.353Z,101701.34
2019-03-30T07:48:26.626Z,101700.34
2019-03-30T07:50:57.270Z,101702.95
2019-03-30T07:53:27.873Z,101687.56
2019-03-30T07:56:08.279Z,101696.84
2019-03-30T07:58:30.307Z,101691.14
2019-03-30T08:01:00.826Z,101683.09
2019-03-30T08:03:31.230Z,101683.75
2019-03-30T08:06:01.836Z,101684.94
2019-03-30T08:08:32.299Z,101684.28
2019-03-30T08:11:02.606Z,101681.28
2019-03-30T08:13:33.090Z,101678.48
2019-03-30T08:16:03.886Z,101679.19
2019-03-30T08:18:34.343Z,101684.75
2019-03-30T08:21:04.942Z,101680.73
2019-03-30T08:23:40.666Z,101681.16
2019-03-30T08:26:07.315Z,101682.53
2019-03-30T08:28:37.980Z,101679.87
2019-03-30T08:31:08.446Z,101680.06
2019-03-30T08:33:39.020Z,101686.75
2019-03-30T08:36:09.773Z,101679.89
2019-03-30T08:38:40.098Z,101680.11
2019-03-30T08:41:10.948Z,101684.73
2019-03-30T08:43:41.233Z,101680.96
2019-03-30T08:46:11.880Z,101679.55
2019-03-30T08:48:42.600Z,101671.95
2019-03-30T08:51:13.360Z,101638.75
2019-03-30T08:53:54.043Z,101671.67
2019-03-30T08:56:16.083Z,101668.39
2019-03-30T08:58:46.486Z,101672.84
2019-03-30T09:01:16.892Z,101665.62
2019-03-30T09:03:47.428Z,101666.44
2019-03-30T09:06:17.911Z,101665.45
2019-03-30T09:08:48.611Z,101664.18
2019-03-30T09:11:19.044Z,101665.41
2019-03-30T09:13:49.815Z,101658.61
2019-03-30T09:16:20.514Z,101658.66
2019-03-30T09:18:51.234Z,101657.65
2019-03-30T09:21:21.557Z,101661.11
2019-03-30T09:23:52.163Z,101660.02
2019-03-30T09:26:22.980Z,101650.91
2019-03-30T09:28:53.594Z,101654.81
2019-03-30T09:31:23.947Z,101648.81
2019-03-30T09:33:54.614Z,101646.97
2019-03-30T09:36:25.595Z,101637.88
2019-03-30T09:38:56.642Z,101647.91
2019-03-30T09:41:28.362Z,101633.39
2019-03-30T09:43:59.469Z,101627.24
2019-03-30T09:46:31.254Z,101628.11
2019-03-30T09:49:01.886Z,101626.25
2019-03-30T09:51:32.824Z,101625.10
2019-03-30T09:54:04.085Z,101625.89
2019-03-30T09:56:34.842Z,101624.50
2019-03-30T09:59:05.429Z,101617.42
2019-03-30T10:01:36.296Z,101608.28
2019-03-30T10:04:07.213Z,101612.52
2019-03-30T10:06:37.909Z,101574.59
2019-03-30T10:09:08.437Z,101602.34
2019-03-30T10:11:38.971Z,101607.26
2019-03-30T10:14:09.275Z,101602.83
2019-03-30T10:16:40.062Z,101594.18
2019-03-30T10:19:10.762Z,101598.64
2019-03-30T10:21:41.470Z,101592.03
2019-03-30T10:24:11.805Z,101586.85
2019-03-30T10:26:42.234Z,101585.95
2019-03-30T10:29:12.823Z,101582.27
2019-03-30T10:31:43.210Z,101590.55
2019-03-30T10:34:13.607Z,101584.42
2019-03-30T10:36:43.973Z,101587.23
2019-03-30T10:39:14.573Z,101574.27
2019-03-30T10:41:45.705Z,101580.08
2019-03-30T10:44:16.297Z,101566.37
2019-03-30T10:46:47.215Z,101566.98
2019-03-30T10:49:17.919Z,101557.05
2019-03-30T10:51:48.598Z,101556.88
2019-03-30T10:54:19.079Z,101552.55
2019-03-30T10:56:49.781Z,101549.85
2019-03-30T10:59:20.370Z,101536.48
2019-03-30T11:01:50.694Z,101542.94
2019-03-30T11:04:21.040Z,101541.63
2019-03-30T11:06:52.338Z,101536.38
2019-03-30T11:09:22.723Z,101535.33
2019-03-30T11:11:53.130Z,101530.38
2019-03-30T11:14:23.504Z,101529.14
2019-03-30T11:16:54.189Z,101523.15
2019-03-30T11:19:24.662Z,101520.04
2019-03-30T11:21:55.272Z,101518.45
2019-03-30T11:24:25.647Z,101508.59
2019-03-30T11:26:56.281Z,101506.98
2019-03-30T11:29:27.713Z,101508.41
2019-03-30T11:31:58.129Z,101505.69
2019-03-30T11:34:28.558Z,101507.97
2019-03-30T11:36:58.868Z,101498.30
2019-03-30T11:39:29.260Z,101502.45
2019-03-30T11:41:59.694Z,101497.38
2019-03-30T11:44:31.349Z,101482.56
2019-03-30T11:47:02.026Z,101482.67
2019-03-30T11:49:32.694Z,101483.51
2019-03-30T11:52:03.337Z,101481.75
2019-03-30T11:54:33.716Z,101474.80
2019-03-30T11:57:04.064Z,101465.02
2019-03-30T11:59:34.446Z,101466.59
2019-03-30T12:02:05.011Z,101471.42
2019-03-30T12:04:35.604Z,101465.36
2019-03-30T12:07:06.056Z,101456.81
2019-03-30T12:09:36.568Z,101456.67
2019-03-30T12:12:07.147Z,101452.25
2019-03-30T12:14:37.974Z,101441.31
2019-03-30T12:17:08.555Z,101442.87
2019-03-30T12:19:38.991Z,101439.03
2019-03-30T12:22:09.476Z,101439.94
2019-03-30T12:24:39.906Z,101445.73
2019-03-30T12:27:10.369Z,101432.68
2019-03-30T12:29:40.695Z,101429.07
2019-03-30T12:32:11.427Z,101425.53
2019-03-30T12:34:41.810Z,101417.17
2019-03-30T12:37:12.606Z,101414.27
2019-03-30T12:39:42.947Z,101405.03
2019-03-30T12:42:13.241Z,101418.96
2019-03-30T12:44:44.074Z,101411.36
2019-03-30T12:47:14.500Z,101396.31
2019-03-30T12:49:45.354Z,101398.70
2019-03-30T12:52:16.001Z,101398.27
2019-03-30T12:54:46.650Z,101395.59
2019-03-30T12:57:16.945Z,101398.98
2019-03-30T12:59:47.340Z,101395.08
2019-03-30T13:02:17.680Z,101358.19
2019-03-30T13:04:48.078Z,101391.06
2019-03-30T13:07:18.449Z,101382.41
2019-03-30T13:09:48.938Z,101384.47
2019-03-30T13:12:19.361Z,101384.81
2019-03-30T13:14:49.867Z,101382.58
2019-03-30T13:17:20.357Z,101373.64
2019-03-30T13:19:50.763Z,101375.27
2019-03-30T13:22:21.469Z,101364.48
2019-03-30T13:24:51.737Z,101367.81
2019-03-30T13:27:22.148Z,101370.70
2019-03-30T13:29:53.516Z,101362.15
2019-03-30T13:32:24.258Z,101367.77
2019-03-30T13:34:55.499Z,101362.06
2019-03-30T13:37:25.868Z,101360.55
2019-03-30T13:39:56.249Z,101352.88
2019-03-30T13:42:26.645Z,101349.75
2019-03-30T13:44:57.098Z,101356.75
2019-03-30T13:47:27.758Z,101354.12
2019-03-30T13:49:58.053Z,101340.77
2019-03-30T13:52:28.509Z,101332.16
2019-03-30T13:54:58.829Z,101329.95
2019-03-30T13:57:29.152Z,101328.56
2019-03-30T13:59:59.548Z,101321.03
2019-03-30T14:02:30.045Z,101327.59
2019-03-30T14:05:00.493Z,101295.04
2019-03-30T14:07:30.957Z,101322.64
2019-03-30T14:10:01.364Z,101319.05
2019-03-30T14:12:32.068Z,101317.48
2019-03-30T14:15:02.552Z,101308.47
2019-03-30T14:17:33.126Z,101306.25
2019-03-30T14:20:03.906Z,101306.68
2019-03-30T14:22:34.577Z,101286.58
2019-03-30T14:25:05.816Z,101298.60
2019-03-30T14:27:36.120Z,101297.66
2019-03-30T14:30:07.573Z,101294.48
2019-03-30T14:32:37.989Z,101295.60
2019-03-30T14:35:08.750Z,101296.68
2019-03-30T14:37:39.144Z,101279.95
2019-03-30T14:40:10.856Z,101284.02
2019-03-30T14:42:41.149Z,101287.09
2019-03-30T14:45:12.197Z,101284.02
2019-03-30T14:47:42.690Z,101288.22
2019-03-30T14:50:13.413Z,101279.66
2019-03-30T14:52:44.044Z,101281.80
2019-03-30T14:55:14.489Z,101277.94
2019-03-30T14:57:44.856Z,101272.27
2019-03-30T15:00:15.762Z,101269.89
2019-03-30T15:02:46.220Z,101271.95
2019-03-30T15:05:16.666Z,101276.69
2019-03-30T15:07:46.980Z,101267.70
2019-03-30T15:10:17.805Z,101273.08
2019-03-30T15:12:52.198Z,101255.33
2019-03-30T15:15:21.490Z,101271.14
2019-03-30T15:17:52.105Z,101263.87
2019-03-30T15:20:22.656Z,101275.47
2019-03-30T15:22:53.048Z,101270.46
2019-03-30T15:25:23.905Z,101266.48
2019-03-30T15:27:54.630Z,101264.64
2019-03-30T15:30:25.216Z,101257.96
2019-03-30T15:32:55.486Z,101268.59
2019-03-30T15:35:27.010Z,101264.00
2019-03-30T15:37:57.337Z,101264.03
2019-03-30T15:40:27.747Z,101270.55
2019-03-30T15:42:58.189Z,101262.33
2019-03-30T15:45:28.628Z,101259.14
2019-03-30T15:47:59.256Z,101261.65
2019-03-30T15:50:29.911Z,101260.98
2019-03-30T15:53:00.240Z,101261.72
2019-03-30T15:55:31.069Z,101262.02
2019-03-30T15:58:01.505Z,101273.77
2019-03-30T16:00:32.315Z,101266.36
2019-03-30T16:03:02.809Z,101273.84
2019-03-30T16:05:33.376Z,101270.45
2019-03-30T16:08:03.958Z,101274.69
2019-03-30T16:10:34.323Z,101282.20
2019-03-30T16:13:04.752Z,101281.24
2019-03-30T16:15:35.277Z,101276.83
2019-03-30T16:18:06.316Z,101270.34
2019-03-30T16:20:36.683Z,101270.14
2019-03-30T16:23:07.136Z,101278.60
2019-03-30T16:25:37.652Z,101275.82
2019-03-30T16:28:08.359Z,101280.89
2019-03-30T16:30:38.737Z,101276.08
2019-03-30T16:33:09.132Z,101277.93
2019-03-30T16:35:39.419Z,101271.63
2019-03-30T16:38:09.790Z,101278.80
2019-03-30T16:40:40.102Z,101268.77
2019-03-30T16:43:10.514Z,101271.49
2019-03-30T16:45:41.199Z,101273.30
2019-03-30T16:48:14.614Z,101276.14
2019-03-30T16:50:44.239Z,101275.73
2019-03-30T16:53:14.526Z,101276.63
2019-03-30T16:55:44.949Z,101276.89
2019-03-30T16:58:15.240Z,101269.42
2019-03-30T17:00:56.460Z,101271.08
2019-03-30T17:03:18.907Z,101274.57
2019-03-30T17:05:49.664Z,101277.53
2019-03-30T17:08:20.564Z,101244.36
2019-03-30T17:10:51.030Z,101266.47
2019-03-30T17:13:22.698Z,101280.72
2019-03-30T17:15:53.109Z,101282.66
2019-03-30T17:18:23.554Z,101284.23
2019-03-30T17:20:55.269Z,101276.48
2019-03-30T17:23:26.074Z,101283.35
2019-03-30T17:25:56.467Z,101277.05
2019-03-30T17:28:27.485Z,101283.17
2019-03-30T17:30:58.016Z,101282.92
2019-03-30T17:33:28.535Z,101284.93
2019-03-30T17:35:59.176Z,101279.63
2019-03-30T17:38:29.538Z,101286.34
2019-03-30T17:40:59.923Z,101249.70
2019-03-30T17:43:32.321Z,101284.72
2019-03-30T17:46:03.779Z,101282.45
2019-03-30T17:48:34.521Z,101287.80
2019-03-30T17:51:04.980Z,101288.03
2019-03-30T17:53:39.198Z,101289.81
2019-03-30T17:56:08.218Z,101288.92
2019-03-30T17:58:38.788Z,101289.30
2019-03-30T18:01:09.240Z,101290.95
2019-03-30T18:03:42.445Z,101289.52
2019-03-30T18:06:12.883Z,101297.88
2019-03-30T18:08:43.891Z,101302.06
2019-03-30T18:11:14.351Z,101295.34
2019-03-30T18:13:44.892Z,101299.89
2019-03-30T18:16:15.373Z,101297.94
2019-03-30T18:18:45.724Z,101302.98
2019-03-30T18:21:16.563Z,101310.58
2019-03-30T18:23:47.585Z,101318.55
2019-03-30T18:26:18.315Z,101318.80
2019-03-30T18:28:49.148Z,101318.25
2019-03-30T18:31:19.906Z,101318.25
2019-03-30T18:33:50.702Z,101323.44
2019-03-30T18:36:21.308Z,101326.58
2019-03-30T18:38:52.261Z,101329.47
2019-03-30T18:41:23.108Z,101327.42
2019-03-30T18:43:53.759Z,101328.80
2019-03-30T18:46:24.293Z,101325.48
2019-03-30T18:48:54.894Z,101336.75
2019-03-30T18:51:25.440Z,101342.06
2019-03-30T18:53:55.906Z,101339.90
2019-03-30T18:56:28.040Z,101346.34
2019-03-30T18:58:58.659Z,101340.86
2019-03-30T19:01:29.162Z,101342.63
2019-03-30T19:03:59.793Z,101345.77
2019-03-30T19:06:30.382Z,101339.91
2019-03-30T19:09:00.880Z,101340.65
2019-03-30T19:11:32.839Z,101340.92
2019-03-30T19:14:03.266Z,101341.89
2019-03-30T19:16:34.090Z,101347.86
2019-03-30T19:19:04.629Z,101345.44
2019-03-30T19:21:35.136Z,101347.06
2019-03-30T19:24:06.311Z,101345.30
2019-03-30T19:26:36.795Z,101341.58
2019-03-30T19:29:07.505Z,101344.52
2019-03-30T19:31:38.252Z,101344.34
2019-03-30T19:34:08.622Z,101345.48
2019-03-30T19:36:39.489Z,101346.85
2019-03-30T19:39:10.605Z,101346.59
2019-03-30T19:41:40.988Z,101348.46
2019-03-30T19:44:11.938Z,101348.70
2019-03-30T19:46:42.769Z,101348.44
2019-03-30T19:49:13.522Z,101344.83
2019-03-30T19:51:44.125Z,101351.89
2019-03-30T19:54:14.585Z,101348.57
2019-03-30T19:56:44.873Z,101350.30
2019-03-30T19:59:15.234Z,101353.47
2019-03-30T20:01:45.625Z,101356.37
2019-03-30T20:04:16.153Z,101356.10
2019-03-30T20:06:46.734Z,101359.37
2019-03-30T20:09:20.597Z,101360.37
2019-03-30T20:11:49.220Z,101365.89
2019-03-30T20:14:19.602Z,101359.80
2019-03-30T20:16:50.180Z,101362.19
2019-03-30T20:19:20.482Z,101371.55
2019-03-30T20:21:50.797Z,101337.20
2019-03-30T20:24:21.313Z,101388.91
2019-03-30T20:26:51.599Z,101393.70
2019-03-30T20:29:25.966Z,101398.45
2019-03-30T20:31:56.340Z,101406.01
2019-03-30T20:34:26.758Z,101398.83
2019-03-30T20:36:57.049Z,101400.48
2019-03-30T20:39:27.347Z,101400.66
2019-03-30T20:41:57.902Z,101397.78
2019-03-30T20:44:28.480Z,101397.42
2019-03-30T20:46:59.094Z,101395.61
2019-03-30T20:49:29.391Z,101398.73
2019-03-30T20:51:59.726Z,101404.71
2019-03-30T20:54:30.031Z,101399.79
2019-03-30T20:57:00.456Z,101396.16
2019-03-30T20:59:39.840Z,101398.09
2019-03-30T21:02:02.944Z,101394.94
2019-03-30T21:04:33.263Z,101393.84
2019-03-30T21:07:03.813Z,101395.55
2019-03-30T21:09:34.113Z,101399.33
2019-03-30T21:12:04.482Z,101400.53
2019-03-30T21:14:34.927Z,101401.48
2019-03-30T21:17:05.375Z,101401.20
2019-03-30T21:19:36.026Z,101405.96
2019-03-30T21:22:06.666Z,101397.02
2019-03-30T21:24:37.302Z,101401.11
2019-03-30T21:27:07.730Z,101396.71
2019-03-30T21:29:38.181Z,101403.86
2019-03-30T21:32:08.701Z,101408.98
2019-03-30T21:34:39.059Z,101407.54
2019-03-30T21:37:09.713Z,101411.03
2019-03-30T21:39:40.148Z,101415.41
2019-03-30T21:42:10.579Z,101405.73
2019-03-30T21:44:41.228Z,101408.73
2019-03-30T21:47:11.581Z,101408.05
2019-03-30T21:49:42.163Z,101409.30
2019-03-30T21:52:12.500Z,101414.86
2019-03-30T21:54:42.900Z,101416.19
2019-03-30T21:57:13.259Z,101421.16
2019-03-30T21:59:43.860Z,101430.57
2019-03-30T22:02:14.155Z,101416.61
2019-03-30T22:04:44.730Z,101419.02
2019-03-30T22:07:15.496Z,101419.91
2019-03-30T22:09:46.048Z,101430.36
2019-03-30T22:12:16.649Z,101432.13
2019-03-30T22:14:47.010Z,101433.09
2019-03-30T22:17:17.410Z,101436.19
2019-03-30T22:19:47.731Z,101440.87
2019-03-30T22:22:18.299Z,101445.23
2019-03-30T22:24:48.691Z,101399.44
2019-03-30T22:27:19.092Z,101449.14
2019-03-30T22:29:49.495Z,101447.37
2019-03-30T22:32:19.802Z,101443.05
2019-03-30T22:34:50.115Z,101444.38
2019-03-30T22:37:20.437Z,101442.27
2019-03-30T22:39:51.150Z,101451.22
2019-03-30T22:42:22.024Z,101440.67
2019-03-30T22:44:53.375Z,101442.20
2019-03-30T22:47:23.679Z,101442.05
2019-03-30T22:49:54.013Z,101434.16
2019-03-30T22:52:24.387Z,101441.05
2019-03-30T22:54:54.731Z,101442.17
2019-03-30T22:57:25.031Z,101439.45
2019-03-30T22:59:55.764Z,101433.58
2019-03-30T23:02:26.309Z,101435.94
2019-03-30T23:04:57.089Z,101441.40
2019-03-30T23:07:27.653Z,101440.19
2019-03-30T23:09:58.292Z,101437.52
2019-03-30T23:12:28.653Z,101444.93
2019-03-30T23:14:58.959Z,101443.87
2019-03-30T23:17:29.303Z,101442.28
2019-03-30T23:19:59.668Z,101444.70
2019-03-30T23:22:29.981Z,101437.34
2019-03-30T23:25:00.398Z,101440.81
2019-03-30T23:27:30.807Z,101439.97
2019-03-30T23:30:01.135Z,101436.19
2019-03-30T23:32:32.580Z,101438.91
2019-03-30T23:35:03.498Z,101437.86
2019-03-30T23:37:33.797Z,101436.59
2019-03-30T23:40:04.624Z,101436.95
2019-03-30T23:42:35.550Z,101434.44
2019-03-30T23:45:06.466Z,101434.28
2019-03-30T23:47:36.847Z,101439.32
2019-03-30T23:50:07.388Z,101438.96
2019-03-30T23:52:37.843Z,101446.13
2019-03-30T23:55:08.402Z,101443.45
2019-03-30T23:57:38.901Z,101449.70
